Carneys Point Township, New Jersey
Current Conditions -  °F | °C
As of 1:51 AM on Thursday 18 Dec 2014 (Local Time) from KILG Reporting Station
Clear Clear  
Wind Chill: -3°   Ceiling: Unl
Heat Index:   Visibility: 10mi
Dew Point: -6°   Wind: 21mph
Humidity: 52%   Direction: 300°WNW
Pressure: 30.01"   Gusts: 32mph
Location:  39.6981°N, 75.4502°W
Report Text: KILG 180651Z AUTO 30018G28KT 10SM CLR 03/M06 A3001 RMK AO2 PK WND 29028/0645 SLP163 T00281061
Loading
Personal Weather Stations






























Interactive Weather Map New forecast layout! Learn more

10-Day Weather Forecast

Advertisements
Track Severe Weather on mobile